Seaguardian — 9HHP7 — position and weather

sailwx.info

Track history (hours):
 
Tides and Currents Weather Stations Pressure Air Temp Water Temp Dewpoint Dewpoint Depression Visibility Wind Speed Wind Dir Waves Ship Positions

Seaguardian

Last reported at 2017-Sep-14 14:05 UTC. Time now 2017-Sep-26 21:59 UTC.
Position N 31°23' E 032°18'.
Warning: this ship's position is 12 days out of date.

Length 225 m; draft 12.7 m.

Type: Ship. MMSI: 215247000.

Date/timePositionNaut miles runAvg speedWind from/ knotsBaromVisibWave heightAir tempDewpointWater temp
2017-Sep-14 14:05N 31°23' E 032°18'0 0.0
2017-Sep-14 13:59N 31°23' E 032°18'0 0.0
2017-Sep-14 13:29N 31°23' E 032°18'0 0.0
2017-Sep-14 12:59N 31°23' E 032°18'0 0.0
2017-Sep-14 12:26N 31°23' E 032°18'18 1.4
2017-Sep-13 23:59N 31°37' E 032°06'713.6
2017-Sep-13 23:30N 31°42' E 032°00'713.7
2017-Sep-13 23:00N 31°47' E 031°55'813.8
2017-Sep-13 22:24N 31°52' E 031°47'813.9
2017-Sep-13 21:48N 31°58' E 031°41'913.7
2017-Sep-13 21:10N 32°05' E 031°34'313.5
2017-Sep-13 20:56N 32°07' E 031°32'613.5
2017-Sep-13 20:30N 32°11' E 031°27'813.7
2017-Sep-13 19:54N 32°17' E 031°20'613.8
2017-Sep-13 19:30N 32°21' E 031°16'914.0
2017-Sep-13 18:51N 32°29' E 031°09'514.0
2017-Sep-13 18:30N 32°32' E 031°05'1513.9
2017-Sep-13 17:25N 32°43' E 030°53'2313.8
2017-Sep-13 15:45N 32°60' E 030°34'2413.9
2017-Sep-13 14:00N 33°18' E 030°14'713.9
2017-Sep-13 13:30N 33°23' E 030°09'1613.9
2017-Sep-13 12:23N 33°35' E 029°57'30113.9
2017-Sep-12 14:44N 37°22' E 025°55'313.7
2017-Sep-12 14:30N 37°25' E 025°53'713.5
2017-Sep-12 14:00N 37°32' E 025°51'234 9.8
2017-Sep-11 14:15N 40°52' E 028°27'313.2
2017-Sep-11 14:00N 40°53' E 028°31'713.2
2017-Sep-11 13:29N 40°54' E 028°40'613.3
2017-Sep-11 13:00N 40°55' E 028°48'5 9.1
2017-Sep-11 12:30N 40°57' E 028°53'1 1.1
2017-Sep-11 11:59N 40°57' E 028°54'0 0.0
2017-Sep-11 11:30N 40°57' E 028°54'0 0.0
2017-Sep-11 10:58N 40°57' E 028°54'0 0.0
2017-Sep-11 10:29N 40°57' E 028°54'0 0.0
2017-Sep-11 10:00N 40°57' E 028°54'0 0.0
2017-Sep-11 09:30N 40°57' E 028°54'0 0.4
2017-Sep-11 08:58N 40°57' E 028°54'1 2.7
2017-Sep-11 08:29N 40°58' E 028°56'3 5.8
2017-Sep-11 08:00N 40°59' E 028°59'15 9.5
2017-Sep-11 06:27N 41°13' E 029°07'4 8.0
2017-Sep-11 05:59N 41°16' E 029°07'612.1
2017-Sep-11 05:30N 41°20' E 029°01'611.2
2017-Sep-11 05:00N 41°23' E 028°55'0 0.8
2017-Sep-11 04:30N 41°23' E 028°55'0 0.8
2017-Sep-11 04:00N 41°23' E 028°55'0 0.6
2017-Sep-11 03:30N 41°23' E 028°56'0 0.6
2017-Sep-11 03:00N 41°23' E 028°56'0 0.6
2017-Sep-11 02:30N 41°23' E 028°57'0 0.6
2017-Sep-11 02:00N 41°23' E 028°57'1 0.6
2017-Sep-11 00:38N 41°23' E 028°58'0 0.5
2017-Sep-11 00:28N 41°23' E 028°58'0 0.4
2017-Sep-11 00:00N 41°23' E 028°58'0 0.4
2017-Sep-10 23:30N 41°23' E 028°59'0 0.4
2017-Sep-10 23:00N 41°23' E 028°59'0 0.3
2017-Sep-10 22:30N 41°23' E 028°59'0 0.3
2017-Sep-10 21:59N 41°23' E 028°59'0 0.3
2017-Sep-10 21:29N 41°23' E 028°60'0 0.3
2017-Sep-10 20:58N 41°23' E 028°60'0 0.3
2017-Sep-10 20:30N 41°23' E 029°00'0 0.4
2017-Sep-10 20:00N 41°23' E 029°00'0 0.5
2017-Sep-10 19:30N 41°23' E 029°01'0 0.7
2017-Sep-10 19:00N 41°23' E 029°01'0 0.9
2017-Sep-10 18:30N 41°23' E 029°02'0 0.8
2017-Sep-10 18:00N 41°23' E 029°02'0 0.2
2017-Sep-10 17:30N 41°23' E 029°02'1 1.3
2017-Sep-10 17:00N 41°23' E 029°02'3 7.1
2017-Sep-10 16:30N 41°27' E 028°60'2 4.6
2017-Sep-10 16:00N 41°28' E 028°57'0 0.8
2017-Sep-10 15:30N 41°27' E 028°57'0 0.8
2017-Sep-10 15:00N 41°27' E 028°58'1 0.8
2017-Sep-10 14:00N 41°27' E 028°59'0 0.8
2017-Sep-10 13:30N 41°27' E 028°59'1 0.9
2017-Sep-10 11:54N 41°27' E 029°01'0 0.8
2017-Sep-10 11:29N 41°27' E 029°02'42012.5
2017-Sep-09 01:52N 44°31' E 037°38'513.4
2017-Sep-09 01:30N 44°34' E 037°44'612.0
2017-Sep-09 01:00N 44°38' E 037°50'3 6.0
2017-Sep-09 00:30N 44°41' E 037°51'1 1.0
2017-Sep-09 00:00N 44°41' E 037°51'0 0.0
2017-Sep-08 23:30N 44°41' E 037°51'0 0.0
2017-Sep-08 23:00N 44°41' E 037°51'0 0.1
2017-Sep-08 22:30N 44°41' E 037°51'0 0.0
2017-Sep-08 22:00N 44°41' E 037°51'0 0.0
2017-Sep-08 21:30N 44°41' E 037°51'0 0.1
2017-Sep-08 20:59N 44°41' E 037°51'0 0.1
2017-Sep-08 20:29N 44°41' E 037°51'0 0.1
2017-Sep-08 19:59N 44°41' E 037°51'0 0.1
2017-Sep-08 19:29N 44°41' E 037°51'0 0.9
2017-Sep-08 19:00N 44°41' E 037°51'2 4.3
2017-Sep-08 18:31N 44°43' E 037°49'1 2.3
2017-Sep-08 17:58N 44°44' E 037°47'0 0.2
2017-Sep-08 17:28N 44°44' E 037°47'0 0.0
2017-Sep-08 16:58N 44°44' E 037°47'0 0.0
2017-Sep-08 16:28N 44°44' E 037°47'0 0.0
2017-Sep-08 15:58N 44°44' E 037°47'0 0.0
2017-Sep-08 15:28N 44°44' E 037°47'0 0.0
2017-Sep-08 14:58N 44°44' E 037°47'0 0.0
2017-Sep-08 14:28N 44°44' E 037°47'0 0.0
2017-Sep-08 13:58N 44°44' E 037°47'0 0.0
2017-Sep-08 13:28N 44°44' E 037°47'0 0.0
2017-Sep-08 12:58N 44°44' E 037°47'0 0.0
2017-Sep-08 12:28N 44°44' E 037°47'0 0.0
2017-Sep-08 11:58N 44°44' E 037°47'0 0.0
2017-Sep-08 11:28N 44°44' E 037°47'0 0.0
2017-Sep-08 10:58N 44°44' E 037°47'0 0.0
2017-Sep-08 10:28N 44°44' E 037°47'0 0.0
2017-Sep-08 09:58N 44°44' E 037°47'0 0.0
2017-Sep-08 09:28N 44°44' E 037°47'0 0.0
2017-Sep-08 08:58N 44°44' E 037°47'0 0.0
2017-Sep-08 08:28N 44°44' E 037°47'0 0.0
2017-Sep-08 07:58N 44°44' E 037°47'0 0.0
2017-Sep-08 07:28N 44°44' E 037°47'0 0.0
2017-Sep-08 06:58N 44°44' E 037°47'0 0.0
2017-Sep-08 06:28N 44°44' E 037°47'0 0.0
2017-Sep-08 05:58N 44°44' E 037°47'0 0.0
2017-Sep-08 05:28N 44°44' E 037°47'0 0.0
2017-Sep-08 04:58N 44°44' E 037°47'0 0.0
2017-Sep-08 04:28N 44°44' E 037°47'0 0.0
2017-Sep-08 03:58N 44°44' E 037°47'0 0.0
2017-Sep-08 03:28N 44°44' E 037°47'0 0.0
2017-Sep-08 02:58N 44°44' E 037°47'0 0.0
2017-Sep-08 02:28N 44°44' E 037°47'0 0.0
2017-Sep-08 01:58N 44°44' E 037°47'0 0.0
2017-Sep-08 01:31N 44°44' E 037°47'0 0.0
2017-Sep-08 01:00N 44°44' E 037°47'0 0.0
2017-Sep-08 00:30N 44°44' E 037°47'0 0.0
2017-Sep-08 00:00N 44°44' E 037°47'0 0.0
2017-Sep-07 23:27N 44°44' E 037°47'0 0.0
2017-Sep-07 23:00N 44°44' E 037°47'0 0.0
2017-Sep-07 22:30N 44°44' E 037°47'0 1.0
2017-Sep-07 22:00N 44°44' E 037°48'4 7.2
2017-Sep-07 21:31N 44°40' E 037°50'4 7.5
2017-Sep-07 21:01N 44°37' E 037°52'2 4.6
2017-Sep-07 20:31N 44°35' E 037°52'2 3.7
2017-Sep-07 20:00N 44°34' E 037°54'0 0.3
2017-Sep-07 19:30N 44°34' E 037°54'0 0.1
2017-Sep-07 19:00N 44°34' E 037°54'0 0.0
2017-Sep-07 18:30N 44°34' E 037°54'0 0.0
2017-Sep-07 18:00N 44°34' E 037°54'0 0.0
2017-Sep-07 17:30N 44°34' E 037°54'0 0.0
2017-Sep-07 17:00N 44°34' E 037°54'0 0.0
2017-Sep-07 16:30N 44°34' E 037°54'0 0.0
2017-Sep-07 16:00N 44°34' E 037°54'0 0.0
2017-Sep-07 15:30N 44°34' E 037°54'0 0.1
2017-Sep-07 15:00N 44°34' E 037°54'0 0.1
2017-Sep-07 14:30N 44°34' E 037°54'0 0.0
2017-Sep-07 14:00N 44°34' E 037°54'0 0.0
2017-Sep-07 13:29N 44°34' E 037°54'0 0.0
2017-Sep-07 12:59N 44°34' E 037°54'0 0.0
2017-Sep-07 12:29N 44°34' E 037°54'0 0.0
2017-Sep-07 11:59N 44°34' E 037°54'0 0.0
2017-Sep-07 11:29N 44°34' E 037°54'0 0.0
2017-Sep-07 10:59N 44°34' E 037°54'0 0.0
2017-Sep-07 10:29N 44°34' E 037°54'0 0.1
2017-Sep-07 09:59N 44°34' E 037°54'0 0.2
2017-Sep-07 09:29N 44°34' E 037°54'0 0.0
2017-Sep-07 08:59N 44°34' E 037°54'0 0.1
2017-Sep-07 08:26N 44°34' E 037°54'0 0.0
2017-Sep-07 07:56N 44°34' E 037°54'0 0.0
2017-Sep-07 07:29N 44°34' E 037°54'0 0.0
2017-Sep-07 06:59N 44°34' E 037°54'0 0.1
2017-Sep-07 06:29N 44°34' E 037°54'0 0.0
2017-Sep-07 05:59N 44°34' E 037°54'0 0.1
2017-Sep-07 05:29N 44°34' E 037°54'0 0.0
2017-Sep-07 04:59N 44°34' E 037°54'0 0.0
2017-Sep-07 04:29N 44°34' E 037°54'0 0.0
2017-Sep-07 03:59N 44°34' E 037°54'0 0.0
2017-Sep-07 03:29N 44°34' E 037°54'0 0.0
2017-Sep-07 02:59N 44°34' E 037°54'0 0.0
2017-Sep-07 02:29N 44°34' E 037°54'0 0.1
2017-Sep-07 01:59N 44°34' E 037°54'0 0.0
2017-Sep-07 01:29N 44°34' E 037°54'0 0.1
2017-Sep-07 00:59N 44°34' E 037°54'0 0.0
2017-Sep-07 00:29N 44°34' E 037°54'0 0.1
2017-Sep-06 23:59N 44°34' E 037°54'0 0.0
2017-Sep-06 23:29N 44°34' E 037°54'0 0.1
2017-Sep-06 22:59N 44°34' E 037°54'0 0.1
2017-Sep-06 22:29N 44°34' E 037°54'0 0.1
2017-Sep-06 21:59N 44°34' E 037°54'0 0.1
2017-Sep-06 21:29N 44°34' E 037°54'0 0.0
2017-Sep-06 20:59N 44°34' E 037°54'0 0.1
2017-Sep-06 20:29N 44°34' E 037°54'0 0.1
2017-Sep-06 19:59N 44°34' E 037°54'0 0.0
2017-Sep-06 19:29N 44°34' E 037°54'0 0.1
2017-Sep-06 18:59N 44°34' E 037°54'0 0.1
2017-Sep-06 17:32N 44°34' E 037°54'0 0.3
2017-Sep-06 17:29N 44°34' E 037°54'0 0.1
2017-Sep-06 16:59N 44°34' E 037°54'0 0.1
2017-Sep-06 16:26N 44°34' E 037°54'0 0.0
2017-Sep-06 15:59N 44°34' E 037°54'0 0.0
2017-Sep-06 15:29N 44°34' E 037°54'0 0.0
2017-Sep-06 14:59N 44°34' E 037°54'0 0.1
2017-Sep-06 14:29N 44°34' E 037°54'0 0.0
2017-Sep-06 13:59N 44°34' E 037°54'0 0.1
2017-Sep-06 13:29N 44°34' E 037°54'0 0.2
2017-Sep-06 12:59N 44°34' E 037°54'0 0.1
2017-Sep-06 12:29N 44°34' E 037°54'0 0.1
2017-Sep-06 11:59N 44°34' E 037°54'0 0.1
2017-Sep-06 11:29N 44°34' E 037°54'0 0.1
2017-Sep-06 10:59N 44°34' E 037°54'0 0.0
2017-Sep-06 10:29N 44°34' E 037°54'0 0.0
2017-Sep-06 09:59N 44°34' E 037°54'0 0.1
2017-Sep-06 09:29N 44°34' E 037°54'0 0.0
2017-Sep-06 08:59N 44°34' E 037°54'0 0.0
2017-Sep-06 08:29N 44°34' E 037°54'0 0.0
2017-Sep-06 07:59N 44°34' E 037°54'0 0.0
2017-Sep-06 07:29N 44°34' E 037°54'0 0.0
2017-Sep-06 06:59N 44°34' E 037°54'0 0.0
2017-Sep-06 06:29N 44°34' E 037°54'0 0.0
2017-Sep-06 05:59N 44°34' E 037°54'0 0.0
2017-Sep-06 05:29N 44°34' E 037°54'0 0.0
2017-Sep-06 04:59N 44°34' E 037°54'0 0.0
2017-Sep-06 04:29N 44°34' E 037°54'0 0.0
2017-Sep-06 03:59N 44°34' E 037°54'0 0.1
2017-Sep-06 03:29N 44°34' E 037°54'0 0.0
2017-Sep-06 02:58N 44°34' E 037°54'0 0.0
2017-Sep-06 02:28N 44°34' E 037°54'0 0.0
2017-Sep-06 01:58N 44°34' E 037°54'0 0.0
2017-Sep-06 01:28N 44°34' E 037°54'0 0.0
2017-Sep-06 00:58N 44°34' E 037°54'0 0.0
2017-Sep-06 00:28N 44°34' E 037°54'0 0.0
2017-Sep-05 23:58N 44°34' E 037°54'0 0.0
2017-Sep-05 23:28N 44°34' E 037°54'0 0.0
2017-Sep-05 22:58N 44°34' E 037°54'0 0.0
2017-Sep-05 22:28N 44°34' E 037°54'0 0.1
2017-Sep-05 21:58N 44°34' E 037°54'0 0.1
2017-Sep-05 21:28N 44°34' E 037°54'0 0.0
2017-Sep-05 20:58N 44°34' E 037°54'0 0.0
2017-Sep-05 20:28N 44°34' E 037°54'0 0.0
2017-Sep-05 19:58N 44°34' E 037°54'0 0.0
2017-Sep-05 19:25N 44°34' E 037°54'0 0.0
2017-Sep-05 18:58N 44°34' E 037°54'0 0.0
2017-Sep-05 18:28N 44°34' E 037°54'0 0.0
2017-Sep-05 17:58N 44°34' E 037°54'0 0.0
2017-Sep-05 17:28N 44°34' E 037°54'0 0.0
2017-Sep-05 16:58N 44°34' E 037°54'0 0.0
2017-Sep-05 16:28N 44°34' E 037°54'0 0.0
2017-Sep-05 15:58N 44°34' E 037°54'0 0.0
2017-Sep-05 15:28N 44°34' E 037°54'0 0.0
2017-Sep-05 14:58N 44°34' E 037°54'0 0.0
2017-Sep-05 14:28N 44°34' E 037°54'0 0.0
2017-Sep-05 13:58N 44°34' E 037°54'0 0.0
2017-Sep-05 13:28N 44°34' E 037°54'0 0.0
2017-Sep-05 12:58N 44°34' E 037°54'0 0.0
2017-Sep-05 12:28N 44°34' E 037°54'0 0.0
2017-Sep-05 11:58N 44°34' E 037°54'0 0.0
2017-Sep-05 11:28N 44°34' E 037°54'0 0.0
2017-Sep-05 10:58N 44°34' E 037°54'0 0.0
2017-Sep-05 10:28N 44°34' E 037°54'0 0.0
2017-Sep-05 09:58N 44°34' E 037°54'0 0.0
2017-Sep-05 09:28N 44°34' E 037°54'0 0.0
2017-Sep-05 08:58N 44°34' E 037°54'0 0.0
2017-Sep-05 08:28N 44°34' E 037°54'0 0.0
2017-Sep-05 07:58N 44°34' E 037°54'0 0.0
2017-Sep-05 07:28N 44°34' E 037°54'0 0.0
2017-Sep-05 06:58N 44°34' E 037°54'0 0.0
2017-Sep-05 06:28N 44°34' E 037°54'0 0.0
2017-Sep-05 05:58N 44°34' E 037°54'0 0.0
2017-Sep-05 05:28N 44°34' E 037°54'0 0.0
2017-Sep-05 04:58N 44°34' E 037°54'0 0.0
2017-Sep-05 04:28N 44°34' E 037°54'0 0.0
2017-Sep-05 03:58N 44°34' E 037°54'0 0.0
2017-Sep-05 03:28N 44°34' E 037°54'0 0.0
2017-Sep-05 02:58N 44°34' E 037°54'0 0.0
2017-Sep-05 02:28N 44°34' E 037°54'0 0.0
2017-Sep-05 01:58N 44°34' E 037°54'0 0.0
2017-Sep-05 01:28N 44°34' E 037°54'0 0.0
2017-Sep-05 00:58N 44°34' E 037°54'0 0.0
2017-Sep-05 00:28N 44°34' E 037°54'0 0.0
2017-Sep-04 23:58N 44°34' E 037°54'0 0.0
2017-Sep-04 23:28N 44°34' E 037°54'0 0.0
2017-Sep-04 22:58N 44°34' E 037°54'0 0.0
2017-Sep-04 22:28N 44°34' E 037°54'0 0.0
2017-Sep-04 21:58N 44°34' E 037°54'0 0.0
2017-Sep-04 21:28N 44°34' E 037°54'0 0.0
2017-Sep-04 20:58N 44°34' E 037°54'0 0.0
2017-Sep-04 20:28N 44°34' E 037°54'0 0.0
2017-Sep-04 19:58N 44°34' E 037°54'0 0.1
2017-Sep-04 19:28N 44°34' E 037°54'0 0.0
2017-Sep-04 18:58N 44°34' E 037°54'0 0.0
2017-Sep-04 18:28N 44°34' E 037°54'0 0.0
2017-Sep-04 17:58N 44°34' E 037°54'0 0.0
2017-Sep-04 17:31N 44°34' E 037°54'0 0.0
2017-Sep-04 17:01N 44°34' E 037°54'0 0.0
2017-Sep-04 16:31N 44°34' E 037°54'0 0.0
2017-Sep-04 16:00N 44°34' E 037°54'0 0.0
2017-Sep-04 15:30N 44°34' E 037°54'0 0.0
2017-Sep-04 15:00N 44°34' E 037°54'0 0.0
2017-Sep-04 14:30N 44°34' E 037°54'  
Track history (hours):
 
Tides and Currents Weather Stations Pressure Air Temp Water Temp Dewpoint Dewpoint Depression Visibility Wind Speed Wind Dir Waves Ship Positions

Seaguardian

Last reported at 2017-Sep-14 14:05 UTC. Time now 2017-Sep-26 21:59 UTC.
Position N 31°23' E 032°18'.
Warning: this ship's position is 12 days out of date.

Length 225 m; draft 12.7 m.

Type: Ship. MMSI: 215247000.

Date/timePositionNaut miles runAvg speedWind from/ knotsBaromVisibWave heightAir tempDewpointWater temp
2017-Sep-14 14:05N 31°23' E 032°18'0 0.0
2017-Sep-14 13:59N 31°23' E 032°18'0 0.0
2017-Sep-14 13:29N 31°23' E 032°18'0 0.0
2017-Sep-14 12:59N 31°23' E 032°18'0 0.0
2017-Sep-14 12:26N 31°23' E 032°18'18 1.4
2017-Sep-13 23:59N 31°37' E 032°06'713.6
2017-Sep-13 23:30N 31°42' E 032°00'713.7
2017-Sep-13 23:00N 31°47' E 031°55'813.8
2017-Sep-13 22:24N 31°52' E 031°47'813.9
2017-Sep-13 21:48N 31°58' E 031°41'913.7
2017-Sep-13 21:10N 32°05' E 031°34'313.5
2017-Sep-13 20:56N 32°07' E 031°32'613.5
2017-Sep-13 20:30N 32°11' E 031°27'813.7
2017-Sep-13 19:54N 32°17' E 031°20'613.8
2017-Sep-13 19:30N 32°21' E 031°16'914.0
2017-Sep-13 18:51N 32°29' E 031°09'514.0
2017-Sep-13 18:30N 32°32' E 031°05'1513.9
2017-Sep-13 17:25N 32°43' E 030°53'2313.8
2017-Sep-13 15:45N 32°60' E 030°34'2413.9
2017-Sep-13 14:00N 33°18' E 030°14'713.9
2017-Sep-13 13:30N 33°23' E 030°09'1613.9
2017-Sep-13 12:23N 33°35' E 029°57'30113.9
2017-Sep-12 14:44N 37°22' E 025°55'313.7
2017-Sep-12 14:30N 37°25' E 025°53'713.5
2017-Sep-12 14:00N 37°32' E 025°51'234 9.8
2017-Sep-11 14:15N 40°52' E 028°27'313.2
2017-Sep-11 14:00N 40°53' E 028°31'713.2
2017-Sep-11 13:29N 40°54' E 028°40'613.3
2017-Sep-11 13:00N 40°55' E 028°48'5 9.1
2017-Sep-11 12:30N 40°57' E 028°53'1 1.1
2017-Sep-11 11:59N 40°57' E 028°54'0 0.0
2017-Sep-11 11:30N 40°57' E 028°54'0 0.0
2017-Sep-11 10:58N 40°57' E 028°54'0 0.0
2017-Sep-11 10:29N 40°57' E 028°54'0 0.0
2017-Sep-11 10:00N 40°57' E 028°54'0 0.0
2017-Sep-11 09:30N 40°57' E 028°54'0 0.4
2017-Sep-11 08:58N 40°57' E 028°54'1 2.7
2017-Sep-11 08:29N 40°58' E 028°56'3 5.8
2017-Sep-11 08:00N 40°59' E 028°59'15 9.5
2017-Sep-11 06:27N 41°13' E 029°07'4 8.0
2017-Sep-11 05:59N 41°16' E 029°07'612.1
2017-Sep-11 05:30N 41°20' E 029°01'611.2
2017-Sep-11 05:00N 41°23' E 028°55'0 0.8
2017-Sep-11 04:30N 41°23' E 028°55'0 0.8
2017-Sep-11 04:00N 41°23' E 028°55'0 0.6
2017-Sep-11 03:30N 41°23' E 028°56'0 0.6
2017-Sep-11 03:00N 41°23' E 028°56'0 0.6
2017-Sep-11 02:30N 41°23' E 028°57'0 0.6
2017-Sep-11 02:00N 41°23' E 028°57'1 0.6
2017-Sep-11 00:38N 41°23' E 028°58'0 0.5
2017-Sep-11 00:28N 41°23' E 028°58'0 0.4
2017-Sep-11 00:00N 41°23' E 028°58'0 0.4
2017-Sep-10 23:30N 41°23' E 028°59'0 0.4
2017-Sep-10 23:00N 41°23' E 028°59'0 0.3
2017-Sep-10 22:30N 41°23' E 028°59'0 0.3
2017-Sep-10 21:59N 41°23' E 028°59'0 0.3
2017-Sep-10 21:29N 41°23' E 028°60'0 0.3
2017-Sep-10 20:58N 41°23' E 028°60'0 0.3
2017-Sep-10 20:30N 41°23' E 029°00'0 0.4
2017-Sep-10 20:00N 41°23' E 029°00'0 0.5
2017-Sep-10 19:30N 41°23' E 029°01'0 0.7
2017-Sep-10 19:00N 41°23' E 029°01'0 0.9
2017-Sep-10 18:30N 41°23' E 029°02'0 0.8
2017-Sep-10 18:00N 41°23' E 029°02'0 0.2
2017-Sep-10 17:30N 41°23' E 029°02'1 1.3
2017-Sep-10 17:00N 41°23' E 029°02'3 7.1
2017-Sep-10 16:30N 41°27' E 028°60'2 4.6
2017-Sep-10 16:00N 41°28' E 028°57'0 0.8
2017-Sep-10 15:30N 41°27' E 028°57'0 0.8
2017-Sep-10 15:00N 41°27' E 028°58'1 0.8
2017-Sep-10 14:00N 41°27' E 028°59'0 0.8
2017-Sep-10 13:30N 41°27' E 028°59'1 0.9
2017-Sep-10 11:54N 41°27' E 029°01'0 0.8
2017-Sep-10 11:29N 41°27' E 029°02'42012.5
2017-Sep-09 01:52N 44°31' E 037°38'513.4
2017-Sep-09 01:30N 44°34' E 037°44'612.0
2017-Sep-09 01:00N 44°38' E 037°50'3 6.0
2017-Sep-09 00:30N 44°41' E 037°51'1 1.0
2017-Sep-09 00:00N 44°41' E 037°51'0 0.0
2017-Sep-08 23:30N 44°41' E 037°51'0 0.0
2017-Sep-08 23:00N 44°41' E 037°51'0 0.1
2017-Sep-08 22:30N 44°41' E 037°51'0 0.0
2017-Sep-08 22:00N 44°41' E 037°51'0 0.0
2017-Sep-08 21:30N 44°41' E 037°51'0 0.1
2017-Sep-08 20:59N 44°41' E 037°51'0 0.1
2017-Sep-08 20:29N 44°41' E 037°51'0 0.1
2017-Sep-08 19:59N 44°41' E 037°51'0 0.1
2017-Sep-08 19:29N 44°41' E 037°51'0 0.9
2017-Sep-08 19:00N 44°41' E 037°51'2 4.3
2017-Sep-08 18:31N 44°43' E 037°49'1 2.3
2017-Sep-08 17:58N 44°44' E 037°47'0 0.2
2017-Sep-08 17:28N 44°44' E 037°47'0 0.0
2017-Sep-08 16:58N 44°44' E 037°47'0 0.0
2017-Sep-08 16:28N 44°44' E 037°47'0 0.0
2017-Sep-08 15:58N 44°44' E 037°47'0 0.0
2017-Sep-08 15:28N 44°44' E 037°47'0 0.0
2017-Sep-08 14:58N 44°44' E 037°47'0 0.0
2017-Sep-08 14:28N 44°44' E 037°47'0 0.0
2017-Sep-08 13:58N 44°44' E 037°47'0 0.0
2017-Sep-08 13:28N 44°44' E 037°47'0 0.0
2017-Sep-08 12:58N 44°44' E 037°47'0 0.0
2017-Sep-08 12:28N 44°44' E 037°47'0 0.0
2017-Sep-08 11:58N 44°44' E 037°47'0 0.0
2017-Sep-08 11:28N 44°44' E 037°47'0 0.0
2017-Sep-08 10:58N 44°44' E 037°47'0 0.0
2017-Sep-08 10:28N 44°44' E 037°47'0 0.0
2017-Sep-08 09:58N 44°44' E 037°47'0 0.0
2017-Sep-08 09:28N 44°44' E 037°47'0 0.0
2017-Sep-08 08:58N 44°44' E 037°47'0 0.0
2017-Sep-08 08:28N 44°44' E 037°47'0 0.0
2017-Sep-08 07:58N 44°44' E 037°47'0 0.0
2017-Sep-08 07:28N 44°44' E 037°47'0 0.0
2017-Sep-08 06:58N 44°44' E 037°47'0 0.0
2017-Sep-08 06:28N 44°44' E 037°47'0 0.0
2017-Sep-08 05:58N 44°44' E 037°47'0 0.0
2017-Sep-08 05:28N 44°44' E 037°47'0 0.0
2017-Sep-08 04:58N 44°44' E 037°47'0 0.0
2017-Sep-08 04:28N 44°44' E 037°47'0 0.0
2017-Sep-08 03:58N 44°44' E 037°47'0 0.0
2017-Sep-08 03:28N 44°44' E 037°47'0 0.0
2017-Sep-08 02:58N 44°44' E 037°47'0 0.0
2017-Sep-08 02:28N 44°44' E 037°47'0 0.0
2017-Sep-08 01:58N 44°44' E 037°47'0 0.0
2017-Sep-08 01:31N 44°44' E 037°47'0 0.0
2017-Sep-08 01:00N 44°44' E 037°47'0 0.0
2017-Sep-08 00:30N 44°44' E 037°47'0 0.0
2017-Sep-08 00:00N 44°44' E 037°47'0 0.0
2017-Sep-07 23:27N 44°44' E 037°47'0 0.0
2017-Sep-07 23:00N 44°44' E 037°47'0 0.0
2017-Sep-07 22:30N 44°44' E 037°47'0 1.0
2017-Sep-07 22:00N 44°44' E 037°48'4 7.2
2017-Sep-07 21:31N 44°40' E 037°50'4 7.5
2017-Sep-07 21:01N 44°37' E 037°52'2 4.6
2017-Sep-07 20:31N 44°35' E 037°52'2 3.7
2017-Sep-07 20:00N 44°34' E 037°54'0 0.3
2017-Sep-07 19:30N 44°34' E 037°54'0 0.1
2017-Sep-07 19:00N 44°34' E 037°54'0 0.0
2017-Sep-07 18:30N 44°34' E 037°54'0 0.0
2017-Sep-07 18:00N 44°34' E 037°54'0 0.0
2017-Sep-07 17:30N 44°34' E 037°54'0 0.0
2017-Sep-07 17:00N 44°34' E 037°54'0 0.0
2017-Sep-07 16:30N 44°34' E 037°54'0 0.0
2017-Sep-07 16:00N 44°34' E 037°54'0 0.0
2017-Sep-07 15:30N 44°34' E 037°54'0 0.1
2017-Sep-07 15:00N 44°34' E 037°54'0 0.1
2017-Sep-07 14:30N 44°34' E 037°54'0 0.0
2017-Sep-07 14:00N 44°34' E 037°54'0 0.0
2017-Sep-07 13:29N 44°34' E 037°54'0 0.0
2017-Sep-07 12:59N 44°34' E 037°54'0 0.0
2017-Sep-07 12:29N 44°34' E 037°54'0 0.0
2017-Sep-07 11:59N 44°34' E 037°54'0 0.0
2017-Sep-07 11:29N 44°34' E 037°54'0 0.0
2017-Sep-07 10:59N 44°34' E 037°54'0 0.0
2017-Sep-07 10:29N 44°34' E 037°54'0 0.1
2017-Sep-07 09:59N 44°34' E 037°54'0 0.2
2017-Sep-07 09:29N 44°34' E 037°54'0 0.0
2017-Sep-07 08:59N 44°34' E 037°54'0 0.1
2017-Sep-07 08:26N 44°34' E 037°54'0 0.0
2017-Sep-07 07:56N 44°34' E 037°54'0 0.0
2017-Sep-07 07:29N 44°34' E 037°54'0 0.0
2017-Sep-07 06:59N 44°34' E 037°54'0 0.1
2017-Sep-07 06:29N 44°34' E 037°54'0 0.0
2017-Sep-07 05:59N 44°34' E 037°54'0 0.1
2017-Sep-07 05:29N 44°34' E 037°54'0 0.0
2017-Sep-07 04:59N 44°34' E 037°54'0 0.0
2017-Sep-07 04:29N 44°34' E 037°54'0 0.0
2017-Sep-07 03:59N 44°34' E 037°54'0 0.0
2017-Sep-07 03:29N 44°34' E 037°54'0 0.0
2017-Sep-07 02:59N 44°34' E 037°54'0 0.0
2017-Sep-07 02:29N 44°34' E 037°54'0 0.1
2017-Sep-07 01:59N 44°34' E 037°54'0 0.0
2017-Sep-07 01:29N 44°34' E 037°54'0 0.1
2017-Sep-07 00:59N 44°34' E 037°54'0 0.0
2017-Sep-07 00:29N 44°34' E 037°54'0 0.1
2017-Sep-06 23:59N 44°34' E 037°54'0 0.0
2017-Sep-06 23:29N 44°34' E 037°54'0 0.1
2017-Sep-06 22:59N 44°34' E 037°54'0 0.1
2017-Sep-06 22:29N 44°34' E 037°54'0 0.1
2017-Sep-06 21:59N 44°34' E 037°54'0 0.1
2017-Sep-06 21:29N 44°34' E 037°54'0 0.0
2017-Sep-06 20:59N 44°34' E 037°54'0 0.1
2017-Sep-06 20:29N 44°34' E 037°54'0 0.1
2017-Sep-06 19:59N 44°34' E 037°54'0 0.0
2017-Sep-06 19:29N 44°34' E 037°54'0 0.1
2017-Sep-06 18:59N 44°34' E 037°54'0 0.1
2017-Sep-06 17:32N 44°34' E 037°54'0 0.3
2017-Sep-06 17:29N 44°34' E 037°54'0 0.1
2017-Sep-06 16:59N 44°34' E 037°54'0 0.1
2017-Sep-06 16:26N 44°34' E 037°54'0 0.0
2017-Sep-06 15:59N 44°34' E 037°54'0 0.0
2017-Sep-06 15:29N 44°34' E 037°54'0 0.0
2017-Sep-06 14:59N 44°34' E 037°54'0 0.1
2017-Sep-06 14:29N 44°34' E 037°54'0 0.0
2017-Sep-06 13:59N 44°34' E 037°54'0 0.1
2017-Sep-06 13:29N 44°34' E 037°54'0 0.2
2017-Sep-06 12:59N 44°34' E 037°54'0 0.1
2017-Sep-06 12:29N 44°34' E 037°54'0 0.1
2017-Sep-06 11:59N 44°34' E 037°54'0 0.1
2017-Sep-06 11:29N 44°34' E 037°54'0 0.1
2017-Sep-06 10:59N 44°34' E 037°54'0 0.0
2017-Sep-06 10:29N 44°34' E 037°54'0 0.0
2017-Sep-06 09:59N 44°34' E 037°54'0 0.1
2017-Sep-06 09:29N 44°34' E 037°54'0 0.0
2017-Sep-06 08:59N 44°34' E 037°54'0 0.0
2017-Sep-06 08:29N 44°34' E 037°54'0 0.0
2017-Sep-06 07:59N 44°34' E 037°54'0 0.0
2017-Sep-06 07:29N 44°34' E 037°54'0 0.0
2017-Sep-06 06:59N 44°34' E 037°54'0 0.0
2017-Sep-06 06:29N 44°34' E 037°54'0 0.0
2017-Sep-06 05:59N 44°34' E 037°54'0 0.0
2017-Sep-06 05:29N 44°34' E 037°54'0 0.0
2017-Sep-06 04:59N 44°34' E 037°54'0 0.0
2017-Sep-06 04:29N 44°34' E 037°54'0 0.0
2017-Sep-06 03:59N 44°34' E 037°54'0 0.1
2017-Sep-06 03:29N 44°34' E 037°54'0 0.0
2017-Sep-06 02:58N 44°34' E 037°54'0 0.0
2017-Sep-06 02:28N 44°34' E 037°54'0 0.0
2017-Sep-06 01:58N 44°34' E 037°54'0 0.0
2017-Sep-06 01:28N 44°34' E 037°54'0 0.0
2017-Sep-06 00:58N 44°34' E 037°54'0 0.0
2017-Sep-06 00:28N 44°34' E 037°54'0 0.0
2017-Sep-05 23:58N 44°34' E 037°54'0 0.0
2017-Sep-05 23:28N 44°34' E 037°54'0 0.0
2017-Sep-05 22:58N 44°34' E 037°54'0 0.0
2017-Sep-05 22:28N 44°34' E 037°54'0 0.1
2017-Sep-05 21:58N 44°34' E 037°54'0 0.1
2017-Sep-05 21:28N 44°34' E 037°54'0 0.0
2017-Sep-05 20:58N 44°34' E 037°54'0 0.0
2017-Sep-05 20:28N 44°34' E 037°54'0 0.0
2017-Sep-05 19:58N 44°34' E 037°54'0 0.0
2017-Sep-05 19:25N 44°34' E 037°54'0 0.0
2017-Sep-05 18:58N 44°34' E 037°54'0 0.0
2017-Sep-05 18:28N 44°34' E 037°54'0 0.0
2017-Sep-05 17:58N 44°34' E 037°54'0 0.0
2017-Sep-05 17:28N 44°34' E 037°54'0 0.0
2017-Sep-05 16:58N 44°34' E 037°54'0 0.0
2017-Sep-05 16:28N 44°34' E 037°54'0 0.0
2017-Sep-05 15:58N 44°34' E 037°54'0 0.0
2017-Sep-05 15:28N 44°34' E 037°54'0 0.0
2017-Sep-05 14:58N 44°34' E 037°54'0 0.0
2017-Sep-05 14:28N 44°34' E 037°54'0 0.0
2017-Sep-05 13:58N 44°34' E 037°54'0 0.0
2017-Sep-05 13:28N 44°34' E 037°54'0 0.0
2017-Sep-05 12:58N 44°34' E 037°54'0 0.0
2017-Sep-05 12:28N 44°34' E 037°54'0 0.0
2017-Sep-05 11:58N 44°34' E 037°54'0 0.0
2017-Sep-05 11:28N 44°34' E 037°54'0 0.0
2017-Sep-05 10:58N 44°34' E 037°54'0 0.0
2017-Sep-05 10:28N 44°34' E 037°54'0 0.0
2017-Sep-05 09:58N 44°34' E 037°54'0 0.0
2017-Sep-05 09:28N 44°34' E 037°54'0 0.0
2017-Sep-05 08:58N 44°34' E 037°54'0 0.0
2017-Sep-05 08:28N 44°34' E 037°54'0 0.0
2017-Sep-05 07:58N 44°34' E 037°54'0 0.0
2017-Sep-05 07:28N 44°34' E 037°54'0 0.0
2017-Sep-05 06:58N 44°34' E 037°54'0 0.0
2017-Sep-05 06:28N 44°34' E 037°54'0 0.0
2017-Sep-05 05:58N 44°34' E 037°54'0 0.0
2017-Sep-05 05:28N 44°34' E 037°54'0 0.0
2017-Sep-05 04:58N 44°34' E 037°54'0 0.0
2017-Sep-05 04:28N 44°34' E 037°54'0 0.0
2017-Sep-05 03:58N 44°34' E 037°54'0 0.0
2017-Sep-05 03:28N 44°34' E 037°54'0 0.0
2017-Sep-05 02:58N 44°34' E 037°54'0 0.0
2017-Sep-05 02:28N 44°34' E 037°54'0 0.0
2017-Sep-05 01:58N 44°34' E 037°54'0 0.0
2017-Sep-05 01:28N 44°34' E 037°54'0 0.0
2017-Sep-05 00:58N 44°34' E 037°54'0 0.0
2017-Sep-05 00:28N 44°34' E 037°54'0 0.0
2017-Sep-04 23:58N 44°34' E 037°54'0 0.0
2017-Sep-04 23:28N 44°34' E 037°54'0 0.0
2017-Sep-04 22:58N 44°34' E 037°54'0 0.0
2017-Sep-04 22:28N 44°34' E 037°54'0 0.0
2017-Sep-04 21:58N 44°34' E 037°54'0 0.0
2017-Sep-04 21:28N 44°34' E 037°54'0 0.0
2017-Sep-04 20:58N 44°34' E 037°54'0 0.0
2017-Sep-04 20:28N 44°34' E 037°54'0 0.0
2017-Sep-04 19:58N 44°34' E 037°54'0 0.1
2017-Sep-04 19:28N 44°34' E 037°54'0 0.0
2017-Sep-04 18:58N 44°34' E 037°54'0 0.0
2017-Sep-04 18:28N 44°34' E 037°54'0 0.0
2017-Sep-04 17:58N 44°34' E 037°54'0 0.0
2017-Sep-04 17:31N 44°34' E 037°54'0 0.0
2017-Sep-04 17:01N 44°34' E 037°54'0 0.0
2017-Sep-04 16:31N 44°34' E 037°54'0 0.0
2017-Sep-04 16:00N 44°34' E 037°54'0 0.0
2017-Sep-04 15:30N 44°34' E 037°54'0 0.0
2017-Sep-04 15:00N 44°34' E 037°54'0 0.0
2017-Sep-04 14:30N 44°34' E 037°54'  

Dump ship's entire track history